sensor_id;sensor_type;location;lat;lon;timestamp;P1;durP1;ratioP1;P2;durP2;ratioP2
51848;SDS011;38952;51.090;-1.832;2022-09-12T00:01:09;7.78;;;5.03;;
51848;SDS011;38952;51.090;-1.832;2022-09-12T00:03:38;4.28;;;3.88;;
51848;SDS011;38952;51.090;-1.832;2022-09-12T00:06:08;4.30;;;3.50;;
51848;SDS011;38952;51.090;-1.832;2022-09-12T00:08:35;4.22;;;3.83;;
51848;SDS011;38952;51.090;-1.832;2022-09-12T00:11:08;4.07;;;3.63;;
51848;SDS011;38952;51.090;-1.832;2022-09-12T00:13:35;6.03;;;3.88;;
51848;SDS011;38952;51.090;-1.832;2022-09-12T00:16:02;4.47;;;3.45;;
51848;SDS011;38952;51.090;-1.832;2022-09-12T00:18:29;4.82;;;3.17;;
51848;SDS011;38952;51.090;-1.832;2022-09-12T00:20:54;3.78;;;3.38;;
51848;SDS011;38952;51.090;-1.832;2022-09-12T00:23:19;4.50;;;3.80;;
51848;SDS011;38952;51.090;-1.832;2022-09-12T00:25:46;3.25;;;2.95;;
51848;SDS011;38952;51.090;-1.832;2022-09-12T00:28:13;3.85;;;3.10;;
51848;SDS011;38952;51.090;-1.832;2022-09-12T00:30:49;3.58;;;2.92;;
51848;SDS011;38952;51.090;-1.832;2022-09-12T00:33:15;3.97;;;3.58;;
51848;SDS011;38952;51.090;-1.832;2022-09-12T00:35:45;4.78;;;3.42;;
51848;SDS011;38952;51.090;-1.832;2022-09-12T00:38:13;4.35;;;3.13;;
51848;SDS011;38952;51.090;-1.832;2022-09-12T00:40:40;3.17;;;2.80;;
51848;SDS011;38952;51.090;-1.832;2022-09-12T00:43:10;4.85;;;3.25;;
51848;SDS011;38952;51.090;-1.832;2022-09-12T00:45:39;3.88;;;2.90;;
51848;SDS011;38952;51.090;-1.832;2022-09-12T00:48:07;3.17;;;2.70;;
51848;SDS011;38952;51.090;-1.832;2022-09-12T00:50:45;2.20;;;2.00;;
51848;SDS011;38952;51.090;-1.832;2022-09-12T00:53:10;1.70;;;1.60;;
51848;SDS011;38952;51.090;-1.832;2022-09-12T00:55:42;2.60;;;2.05;;
51848;SDS011;38952;51.090;-1.832;2022-09-12T00:58:23;2.20;;;2.00;;
51848;SDS011;38952;51.090;-1.832;2022-09-12T01:00:52;2.45;;;1.88;;
51848;SDS011;38952;51.090;-1.832;2022-09-12T01:03:18;2.92;;;2.30;;
51848;SDS011;38952;51.090;-1.832;2022-09-12T01:05:49;3.25;;;2.70;;
51848;SDS011;38952;51.090;-1.832;2022-09-12T01:08:23;3.40;;;2.78;;
51848;SDS011;38952;51.090;-1.832;2022-09-12T01:10:49;4.10;;;2.80;;
51848;SDS011;38952;51.090;-1.832;2022-09-12T01:13:14;3.60;;;2.83;;
51848;SDS011;38952;51.090;-1.832;2022-09-12T01:15:40;4.05;;;3.28;;
51848;SDS011;38952;51.090;-1.832;2022-09-12T01:31:21;11.18;;;7.63;;
51848;SDS011;38952;51.090;-1.832;2022-09-12T01:34:08;10.50;;;6.22;;
51848;SDS011;38952;51.090;-1.832;2022-09-12T01:39:49;8.73;;;6.68;;
51848;SDS011;38952;51.090;-1.832;2022-09-12T01:42:34;8.07;;;6.57;;
51848;SDS011;38952;51.090;-1.832;2022-09-12T01:45:15;7.18;;;5.63;;
51848;SDS011;38952;51.090;-1.832;2022-09-12T01:47:49;10.07;;;7.72;;
51848;SDS011;38952;51.090;-1.832;2022-09-12T01:50:22;15.43;;;9.93;;
51848;SDS011;38952;51.090;-1.832;2022-09-12T01:52:58;13.27;;;10.15;;
51848;SDS011;38952;51.090;-1.832;2022-09-12T01:55:30;12.38;;;9.65;;
51848;SDS011;38952;51.090;-1.832;2022-09-12T02:00:34;9.38;;;8.23;;
51848;SDS011;38952;51.090;-1.832;2022-09-12T02:03:08;15.35;;;10.35;;
51848;SDS011;38952;51.090;-1.832;2022-09-12T02:05:40;13.45;;;9.40;;
51848;SDS011;38952;51.090;-1.832;2022-09-12T02:08:45;11.82;;;9.15;;
51848;SDS011;38952;51.090;-1.832;2022-09-12T02:11:08;13.05;;;8.90;;
51848;SDS011;38952;51.090;-1.832;2022-09-12T02:13:42;13.70;;;9.45;;
51848;SDS011;38952;51.090;-1.832;2022-09-12T02:16:14;12.57;;;8.52;;
51848;SDS011;38952;51.090;-1.832;2022-09-12T02:18:52;9.13;;;7.57;;
51848;SDS011;38952;51.090;-1.832;2022-09-12T02:21:22;11.95;;;8.50;;
51848;SDS011;38952;51.090;-1.832;2022-09-12T02:23:52;17.63;;;10.43;;
51848;SDS011;38952;51.090;-1.832;2022-09-12T02:26:24;14.80;;;10.60;;
51848;SDS011;38952;51.090;-1.832;2022-09-12T02:29:05;13.45;;;8.88;;
51848;SDS011;38952;51.090;-1.832;2022-09-12T02:39:31;14.95;;;9.48;;
51848;SDS011;38952;51.090;-1.832;2022-09-12T02:41:58;9.25;;;6.93;;
51848;SDS011;38952;51.090;-1.832;2022-09-12T02:44:26;8.45;;;7.13;;
51848;SDS011;38952;51.090;-1.832;2022-09-12T02:46:54;7.45;;;6.35;;
51848;SDS011;38952;51.090;-1.832;2022-09-12T02:49:24;10.18;;;7.28;;
51848;SDS011;38952;51.090;-1.832;2022-09-12T02:51:50;6.53;;;5.55;;
51848;SDS011;38952;51.090;-1.832;2022-09-12T02:54:16;11.68;;;7.97;;
51848;SDS011;38952;51.090;-1.832;2022-09-12T02:56:44;12.85;;;9.25;;
51848;SDS011;38952;51.090;-1.832;2022-09-12T02:59:10;9.07;;;7.05;;
51848;SDS011;38952;51.090;-1.832;2022-09-12T03:14:57;10.45;;;8.55;;
51848;SDS011;38952;51.090;-1.832;2022-09-12T03:29:06;7.63;;;5.65;;
51848;SDS011;38952;51.090;-1.832;2022-09-12T03:31:33;7.90;;;5.85;;
51848;SDS011;38952;51.090;-1.832;2022-09-12T03:33:58;9.52;;;5.38;;
51848;SDS011;38952;51.090;-1.832;2022-09-12T03:36:26;13.32;;;9.32;;
51848;SDS011;38952;51.090;-1.832;2022-09-12T03:38:52;14.85;;;8.93;;
51848;SDS011;38952;51.090;-1.832;2022-09-12T03:41:18;10.35;;;7.55;;
51848;SDS011;38952;51.090;-1.832;2022-09-12T03:43:44;9.60;;;7.32;;
51848;SDS011;38952;51.090;-1.832;2022-09-12T03:46:10;12.35;;;8.30;;
51848;SDS011;38952;51.090;-1.832;2022-09-12T03:48:35;11.75;;;8.30;;
51848;SDS011;38952;51.090;-1.832;2022-09-12T03:51:05;13.18;;;8.35;;
51848;SDS011;38952;51.090;-1.832;2022-09-12T03:53:32;10.05;;;7.55;;
51848;SDS011;38952;51.090;-1.832;2022-09-12T03:55:58;14.35;;;9.07;;
51848;SDS011;38952;51.090;-1.832;2022-09-12T03:58:24;11.30;;;8.05;;
51848;SDS011;38952;51.090;-1.832;2022-09-12T04:00:54;8.75;;;6.88;;
51848;SDS011;38952;51.090;-1.832;2022-09-12T04:03:20;7.20;;;5.47;;
51848;SDS011;38952;51.090;-1.832;2022-09-12T04:05:45;8.18;;;6.03;;
51848;SDS011;38952;51.090;-1.832;2022-09-12T04:08:11;9.52;;;6.85;;
51848;SDS011;38952;51.090;-1.832;2022-09-12T04:10:37;10.18;;;6.13;;
51848;SDS011;38952;51.090;-1.832;2022-09-12T04:13:02;9.40;;;6.05;;
51848;SDS011;38952;51.090;-1.832;2022-09-12T04:15:27;8.05;;;6.20;;
51848;SDS011;38952;51.090;-1.832;2022-09-12T04:17:53;8.20;;;5.82;;
51848;SDS011;38952;51.090;-1.832;2022-09-12T04:20:18;6.78;;;4.80;;
51848;SDS011;38952;51.090;-1.832;2022-09-12T04:22:44;11.82;;;8.80;;
51848;SDS011;38952;51.090;-1.832;2022-09-12T04:25:09;12.88;;;9.65;;
51848;SDS011;38952;51.090;-1.832;2022-09-12T04:27:35;14.65;;;10.02;;
51848;SDS011;38952;51.090;-1.832;2022-09-12T04:30:01;13.50;;;9.68;;
51848;SDS011;38952;51.090;-1.832;2022-09-12T04:32:28;12.65;;;8.85;;
51848;SDS011;38952;51.090;-1.832;2022-09-12T04:34:55;11.27;;;7.30;;
51848;SDS011;38952;51.090;-1.832;2022-09-12T04:37:20;9.80;;;6.45;;
51848;SDS011;38952;51.090;-1.832;2022-09-12T04:39:47;6.97;;;5.07;;
51848;SDS011;38952;51.090;-1.832;2022-09-12T04:42:13;5.60;;;3.97;;
51848;SDS011;38952;51.090;-1.832;2022-09-12T04:44:39;4.47;;;3.60;;
51848;SDS011;38952;51.090;-1.832;2022-09-12T04:47:05;5.95;;;4.07;;
51848;SDS011;38952;51.090;-1.832;2022-09-12T04:49:30;6.30;;;4.53;;
51848;SDS011;38952;51.090;-1.832;2022-09-12T04:51:56;8.23;;;5.13;;
51848;SDS011;38952;51.090;-1.832;2022-09-12T04:54:22;10.07;;;5.55;;
51848;SDS011;38952;51.090;-1.832;2022-09-12T04:56:48;10.00;;;6.15;;
51848;SDS011;38952;51.090;-1.832;2022-09-12T04:59:15;8.13;;;5.50;;
51848;SDS011;38952;51.090;-1.832;2022-09-12T05:01:42;14.75;;;8.23;;
51848;SDS011;38952;51.090;-1.832;2022-09-12T05:04:11;18.65;;;8.15;;
51848;SDS011;38952;51.090;-1.832;2022-09-12T05:06:37;18.42;;;9.32;;
51848;SDS011;38952;51.090;-1.832;2022-09-12T05:09:05;23.83;;;9.93;;
51848;SDS011;38952;51.090;-1.832;2022-09-12T05:11:32;19.15;;;11.07;;
51848;SDS011;38952;51.090;-1.832;2022-09-12T05:14:00;19.25;;;10.18;;
51848;SDS011;38952;51.090;-1.832;2022-09-12T05:16:26;17.27;;;9.05;;
51848;SDS011;38952;51.090;-1.832;2022-09-12T05:18:52;12.55;;;7.13;;
51848;SDS011;38952;51.090;-1.832;2022-09-12T05:21:20;9.02;;;5.95;;
51848;SDS011;38952;51.090;-1.832;2022-09-12T05:23:49;11.23;;;6.75;;
51848;SDS011;38952;51.090;-1.832;2022-09-12T05:26:20;10.60;;;6.53;;
51848;SDS011;38952;51.090;-1.832;2022-09-12T05:28:47;11.40;;;6.90;;
51848;SDS011;38952;51.090;-1.832;2022-09-12T05:31:17;11.10;;;7.07;;
51848;SDS011;38952;51.090;-1.832;2022-09-12T05:33:45;12.40;;;7.50;;
51848;SDS011;38952;51.090;-1.832;2022-09-12T05:36:19;9.57;;;6.00;;
51848;SDS011;38952;51.090;-1.832;2022-09-12T05:38:47;12.43;;;7.15;;
51848;SDS011;38952;51.090;-1.832;2022-09-12T05:41:15;12.77;;;7.15;;
51848;SDS011;38952;51.090;-1.832;2022-09-12T05:43:41;8.10;;;5.10;;
51848;SDS011;38952;51.090;-1.832;2022-09-12T05:46:08;10.98;;;5.32;;
51848;SDS011;38952;51.090;-1.832;2022-09-12T05:48:38;8.55;;;5.95;;
51848;SDS011;38952;51.090;-1.832;2022-09-12T05:51:06;9.98;;;5.97;;
51848;SDS011;38952;51.090;-1.832;2022-09-12T05:53:36;10.15;;;6.32;;
51848;SDS011;38952;51.090;-1.832;2022-09-12T05:56:03;8.20;;;5.68;;
51848;SDS011;38952;51.090;-1.832;2022-09-12T05:58:30;8.48;;;5.65;;
51848;SDS011;38952;51.090;-1.832;2022-09-12T06:01:03;7.63;;;5.00;;
51848;SDS011;38952;51.090;-1.832;2022-09-12T06:03:31;7.50;;;5.93;;
51848;SDS011;38952;51.090;-1.832;2022-09-12T06:06:00;7.47;;;5.68;;
51848;SDS011;38952;51.090;-1.832;2022-09-12T06:08:26;13.55;;;8.18;;
51848;SDS011;38952;51.090;-1.832;2022-09-12T06:10:56;17.45;;;8.27;;
51848;SDS011;38952;51.090;-1.832;2022-09-12T06:13:23;8.30;;;6.63;;
51848;SDS011;38952;51.090;-1.832;2022-09-12T06:15:49;7.53;;;5.97;;
51848;SDS011;38952;51.090;-1.832;2022-09-12T06:18:14;9.88;;;6.50;;
51848;SDS011;38952;51.090;-1.832;2022-09-12T06:20:39;7.10;;;5.22;;
51848;SDS011;38952;51.090;-1.832;2022-09-12T06:23:05;8.38;;;5.70;;
51848;SDS011;38952;51.090;-1.832;2022-09-12T06:25:30;7.82;;;4.88;;
51848;SDS011;38952;51.090;-1.832;2022-09-12T06:27:56;7.88;;;5.72;;
51848;SDS011;38952;51.090;-1.832;2022-09-12T06:30:21;9.98;;;6.10;;
51848;SDS011;38952;51.090;-1.832;2022-09-12T06:32:47;10.80;;;7.35;;
51848;SDS011;38952;51.090;-1.832;2022-09-12T06:35:12;11.30;;;6.65;;
51848;SDS011;38952;51.090;-1.832;2022-09-12T06:37:37;12.98;;;8.45;;
51848;SDS011;38952;51.090;-1.832;2022-09-12T06:40:04;13.25;;;7.60;;
51848;SDS011;38952;51.090;-1.832;2022-09-12T06:42:34;14.55;;;8.23;;
51848;SDS011;38952;51.090;-1.832;2022-09-12T06:44:59;11.25;;;6.97;;
51848;SDS011;38952;51.090;-1.832;2022-09-12T06:47:24;6.85;;;5.10;;
51848;SDS011;38952;51.090;-1.832;2022-09-12T06:49:50;9.68;;;6.38;;
51848;SDS011;38952;51.090;-1.832;2022-09-12T06:52:15;7.95;;;5.90;;
51848;SDS011;38952;51.090;-1.832;2022-09-12T06:54:42;10.52;;;6.97;;
51848;SDS011;38952;51.090;-1.832;2022-09-12T06:57:07;9.90;;;6.00;;
51848;SDS011;38952;51.090;-1.832;2022-09-12T06:59:32;11.82;;;6.57;;
51848;SDS011;38952;51.090;-1.832;2022-09-12T07:01:58;16.45;;;9.70;;
51848;SDS011;38952;51.090;-1.832;2022-09-12T07:04:23;16.38;;;10.38;;
51848;SDS011;38952;51.090;-1.832;2022-09-12T07:06:49;16.17;;;9.77;;
51848;SDS011;38952;51.090;-1.832;2022-09-12T07:09:14;17.80;;;10.02;;
51848;SDS011;38952;51.090;-1.832;2022-09-12T07:11:41;16.80;;;9.90;;
51848;SDS011;38952;51.090;-1.832;2022-09-12T07:14:07;12.50;;;8.50;;
51848;SDS011;38952;51.090;-1.832;2022-09-12T07:16:36;14.38;;;8.15;;
51848;SDS011;38952;51.090;-1.832;2022-09-12T07:19:03;7.18;;;5.40;;
51848;SDS011;38952;51.090;-1.832;2022-09-12T07:21:29;12.30;;;7.68;;
51848;SDS011;38952;51.090;-1.832;2022-09-12T07:23:55;7.15;;;4.65;;
51848;SDS011;38952;51.090;-1.832;2022-09-12T07:26:22;11.93;;;7.03;;
51848;SDS011;38952;51.090;-1.832;2022-09-12T07:28:51;13.18;;;7.15;;
51848;SDS011;38952;51.090;-1.832;2022-09-12T07:31:22;8.50;;;6.18;;
51848;SDS011;38952;51.090;-1.832;2022-09-12T07:33:49;10.50;;;5.43;;
51848;SDS011;38952;51.090;-1.832;2022-09-12T07:36:16;6.45;;;4.05;;
51848;SDS011;38952;51.090;-1.832;2022-09-12T07:38:43;4.40;;;2.83;;
51848;SDS011;38952;51.090;-1.832;2022-09-12T07:41:11;4.68;;;3.05;;
51848;SDS011;38952;51.090;-1.832;2022-09-12T07:43:43;5.00;;;3.60;;
51848;SDS011;38952;51.090;-1.832;2022-09-12T07:46:09;6.35;;;4.20;;
51848;SDS011;38952;51.090;-1.832;2022-09-12T07:48:36;7.32;;;4.88;;
51848;SDS011;38952;51.090;-1.832;2022-09-12T07:51:04;5.45;;;3.95;;
51848;SDS011;38952;51.090;-1.832;2022-09-12T07:53:34;7.53;;;5.45;;
51848;SDS011;38952;51.090;-1.832;2022-09-12T07:56:01;8.68;;;6.15;;
51848;SDS011;38952;51.090;-1.832;2022-09-12T07:58:31;9.30;;;5.72;;
51848;SDS011;38952;51.090;-1.832;2022-09-12T08:01:04;6.28;;;4.47;;
51848;SDS011;38952;51.090;-1.832;2022-09-12T08:03:35;6.60;;;4.07;;
51848;SDS011;38952;51.090;-1.832;2022-09-12T08:08:29;10.20;;;6.75;;
51848;SDS011;38952;51.090;-1.832;2022-09-12T08:10:58;12.20;;;7.00;;
51848;SDS011;38952;51.090;-1.832;2022-09-12T08:13:25;12.27;;;6.07;;
51848;SDS011;38952;51.090;-1.832;2022-09-12T08:15:55;9.20;;;5.82;;
51848;SDS011;38952;51.090;-1.832;2022-09-12T08:18:21;8.98;;;5.53;;
51848;SDS011;38952;51.090;-1.832;2022-09-12T08:20:47;8.40;;;5.63;;
51848;SDS011;38952;51.090;-1.832;2022-09-12T08:23:12;8.73;;;5.50;;
51848;SDS011;38952;51.090;-1.832;2022-09-12T08:25:38;10.23;;;5.55;;
51848;SDS011;38952;51.090;-1.832;2022-09-12T08:28:03;7.88;;;5.03;;
51848;SDS011;38952;51.090;-1.832;2022-09-12T08:30:28;9.05;;;4.00;;
51848;SDS011;38952;51.090;-1.832;2022-09-12T08:32:54;8.13;;;4.15;;
51848;SDS011;38952;51.090;-1.832;2022-09-12T08:35:19;9.95;;;3.60;;
51848;SDS011;38952;51.090;-1.832;2022-09-12T08:37:45;6.18;;;3.55;;
51848;SDS011;38952;51.090;-1.832;2022-09-12T08:40:14;4.25;;;2.60;;
51848;SDS011;38952;51.090;-1.832;2022-09-12T08:45:42;3.33;;;2.13;;
51848;SDS011;38952;51.090;-1.832;2022-09-12T08:48:17;2.63;;;1.90;;
51848;SDS011;38952;51.090;-1.832;2022-09-12T08:50:42;4.95;;;2.00;;
51848;SDS011;38952;51.090;-1.832;2022-09-12T08:53:11;2.72;;;2.10;;
51848;SDS011;38952;51.090;-1.832;2022-09-12T08:55:42;4.35;;;2.45;;
51848;SDS011;38952;51.090;-1.832;2022-09-12T08:58:12;2.28;;;1.80;;
51848;SDS011;38952;51.090;-1.832;2022-09-12T09:06:52;6.18;;;2.47;;
51848;SDS011;38952;51.090;-1.832;2022-09-12T09:12:21;4.37;;;2.50;;
51848;SDS011;38952;51.090;-1.832;2022-09-12T09:17:52;4.82;;;3.28;;
51848;SDS011;38952;51.090;-1.832;2022-09-12T09:20:37;2.85;;;2.20;;
51848;SDS011;38952;51.090;-1.832;2022-09-12T09:28:50;2.90;;;1.52;;
51848;SDS011;38952;51.090;-1.832;2022-09-12T09:31:20;3.03;;;1.65;;
51848;SDS011;38952;51.090;-1.832;2022-09-12T09:33:51;2.63;;;1.73;;
51848;SDS011;38952;51.090;-1.832;2022-09-12T09:44:17;1.13;;;0.75;;
51848;SDS011;38952;51.090;-1.832;2022-09-12T09:46:43;2.67;;;1.10;;
51848;SDS011;38952;51.090;-1.832;2022-09-12T09:49:10;1.85;;;0.90;;
51848;SDS011;38952;51.090;-1.832;2022-09-12T09:51:38;1.02;;;0.80;;
51848;SDS011;38952;51.090;-1.832;2022-09-12T09:54:19;1.50;;;0.90;;
51848;SDS011;38952;51.090;-1.832;2022-09-12T09:56:47;1.70;;;1.05;;
51848;SDS011;38952;51.090;-1.832;2022-09-12T10:01:51;2.08;;;0.93;;
51848;SDS011;38952;51.090;-1.832;2022-09-12T10:04:34;1.35;;;0.90;;
51848;SDS011;38952;51.090;-1.832;2022-09-12T10:07:03;1.08;;;0.80;;
51848;SDS011;38952;51.090;-1.832;2022-09-12T10:09:31;1.45;;;0.77;;
51848;SDS011;38952;51.090;-1.832;2022-09-12T10:11:59;2.47;;;1.10;;
51848;SDS011;38952;51.090;-1.832;2022-09-12T10:14:39;1.40;;;0.80;;
51848;SDS011;38952;51.090;-1.832;2022-09-12T10:19:46;1.92;;;1.05;;
51848;SDS011;38952;51.090;-1.832;2022-09-12T10:22:16;2.53;;;1.10;;
51848;SDS011;38952;51.090;-1.832;2022-09-12T10:24:50;2.08;;;0.70;;
51848;SDS011;38952;51.090;-1.832;2022-09-12T10:29:55;1.75;;;0.63;;
51848;SDS011;38952;51.090;-1.832;2022-09-12T10:34:59;2.28;;;0.80;;
51848;SDS011;38952;51.090;-1.832;2022-09-12T10:37:32;3.33;;;0.90;;
51848;SDS011;38952;51.090;-1.832;2022-09-12T10:40:00;1.58;;;0.85;;
51848;SDS011;38952;51.090;-1.832;2022-09-12T10:47:45;0.65;;;0.43;;
51848;SDS011;38952;51.090;-1.832;2022-09-12T10:50:23;1.30;;;0.68;;
51848;SDS011;38952;51.090;-1.832;2022-09-12T10:52:51;1.77;;;0.73;;
51848;SDS011;38952;51.090;-1.832;2022-09-12T10:55:17;1.58;;;0.60;;
51848;SDS011;38952;51.090;-1.832;2022-09-12T10:57:59;1.60;;;0.95;;
51848;SDS011;38952;51.090;-1.832;2022-09-12T11:00:34;1.50;;;0.82;;
51848;SDS011;38952;51.090;-1.832;2022-09-12T11:03:15;1.50;;;0.90;;
51848;SDS011;38952;51.090;-1.832;2022-09-12T11:05:57;2.40;;;0.90;;
51848;SDS011;38952;51.090;-1.832;2022-09-12T11:19:34;1.33;;;0.60;;
51848;SDS011;38952;51.090;-1.832;2022-09-12T11:22:18;0.98;;;0.68;;
51848;SDS011;38952;51.090;-1.832;2022-09-12T11:27:53;2.60;;;0.88;;
51848;SDS011;38952;51.090;-1.832;2022-09-12T11:35:59;1.00;;;0.68;;
51848;SDS011;38952;51.090;-1.832;2022-09-12T11:51:49;4.88;;;1.00;;
51848;SDS011;38952;51.090;-1.832;2022-09-12T12:02:10;0.50;;;0.40;;
51848;SDS011;38952;51.090;-1.832;2022-09-12T12:04:46;2.13;;;0.90;;
51848;SDS011;38952;51.090;-1.832;2022-09-12T12:07:40;1.23;;;0.52;;
51848;SDS011;38952;51.090;-1.832;2022-09-12T12:10:20;1.08;;;0.55;;
51848;SDS011;38952;51.090;-1.832;2022-09-12T12:12:49;2.30;;;0.57;;
51848;SDS011;38952;51.090;-1.832;2022-09-12T12:15:15;1.98;;;0.70;;
51848;SDS011;38952;51.090;-1.832;2022-09-12T12:17:42;0.70;;;0.40;;
51848;SDS011;38952;51.090;-1.832;2022-09-12T12:20:14;1.15;;;0.70;;
51848;SDS011;38952;51.090;-1.832;2022-09-12T12:22:51;3.00;;;0.50;;
51848;SDS011;38952;51.090;-1.832;2022-09-12T12:43:41;1.08;;;0.47;;
51848;SDS011;38952;51.090;-1.832;2022-09-12T12:46:12;0.68;;;0.60;;
51848;SDS011;38952;51.090;-1.832;2022-09-12T12:48:51;0.85;;;0.30;;
51848;SDS011;38952;51.090;-1.832;2022-09-12T12:51:36;1.55;;;0.45;;
51848;SDS011;38952;51.090;-1.832;2022-09-12T12:57:00;0.60;;;0.38;;
51848;SDS011;38952;51.090;-1.832;2022-09-12T12:59:28;2.38;;;0.60;;
51848;SDS011;38952;51.090;-1.832;2022-09-12T13:01:55;2.45;;;0.70;;
51848;SDS011;38952;51.090;-1.832;2022-09-12T13:04:28;1.17;;;0.40;;
51848;SDS011;38952;51.090;-1.832;2022-09-12T13:07:04;0.43;;;0.30;;
51848;SDS011;38952;51.090;-1.832;2022-09-12T13:09:36;2.83;;;0.68;;
51848;SDS011;38952;51.090;-1.832;2022-09-12T13:12:16;0.75;;;0.40;;
51848;SDS011;38952;51.090;-1.832;2022-09-12T13:17:24;0.52;;;0.30;;
51848;SDS011;38952;51.090;-1.832;2022-09-12T13:20:03;0.98;;;0.47;;
51848;SDS011;38952;51.090;-1.832;2022-09-12T13:22:46;1.85;;;0.40;;
51848;SDS011;38952;51.090;-1.832;2022-09-12T13:30:38;0.80;;;0.45;;
51848;SDS011;38952;51.090;-1.832;2022-09-12T13:36:06;1.65;;;0.40;;
51848;SDS011;38952;51.090;-1.832;2022-09-12T13:39:06;1.23;;;0.32;;
51848;SDS011;38952;51.090;-1.832;2022-09-12T13:44:07;0.52;;;0.40;;
51848;SDS011;38952;51.090;-1.832;2022-09-12T13:46:37;1.10;;;0.45;;
51848;SDS011;38952;51.090;-1.832;2022-09-12T13:49:18;1.33;;;0.52;;
51848;SDS011;38952;51.090;-1.832;2022-09-12T13:51:52;1.33;;;0.40;;
51848;SDS011;38952;51.090;-1.832;2022-09-12T13:54:27;1.65;;;0.63;;
51848;SDS011;38952;51.090;-1.832;2022-09-12T13:56:53;2.05;;;0.60;;
51848;SDS011;38952;51.090;-1.832;2022-09-12T13:59:19;1.33;;;0.40;;
51848;SDS011;38952;51.090;-1.832;2022-09-12T14:01:45;2.75;;;0.60;;
51848;SDS011;38952;51.090;-1.832;2022-09-12T14:07:13;1.23;;;0.45;;
51848;SDS011;38952;51.090;-1.832;2022-09-12T14:09:45;1.42;;;0.40;;
51848;SDS011;38952;51.090;-1.832;2022-09-12T14:12:36;1.98;;;0.50;;
51848;SDS011;38952;51.090;-1.832;2022-09-12T14:15:04;2.30;;;0.57;;
51848;SDS011;38952;51.090;-1.832;2022-09-12T14:17:34;1.52;;;0.55;;
51848;SDS011;38952;51.090;-1.832;2022-09-12T14:20:21;1.17;;;0.43;;
51848;SDS011;38952;51.090;-1.832;2022-09-12T14:22:51;0.75;;;0.40;;
51848;SDS011;38952;51.090;-1.832;2022-09-12T14:25:19;1.27;;;0.47;;
51848;SDS011;38952;51.090;-1.832;2022-09-12T14:27:56;1.42;;;0.77;;
51848;SDS011;38952;51.090;-1.832;2022-09-12T14:33:13;3.55;;;1.10;;
51848;SDS011;38952;51.090;-1.832;2022-09-12T14:35:46;2.45;;;0.60;;
51848;SDS011;38952;51.090;-1.832;2022-09-12T14:40:40;6.00;;;1.20;;
51848;SDS011;38952;51.090;-1.832;2022-09-12T14:43:24;1.48;;;0.60;;
51848;SDS011;38952;51.090;-1.832;2022-09-12T14:46:37;0.73;;;0.30;;
51848;SDS011;38952;51.090;-1.832;2022-09-12T14:48:50;1.23;;;0.40;;
51848;SDS011;38952;51.090;-1.832;2022-09-12T14:51:19;3.10;;;0.50;;
51848;SDS011;38952;51.090;-1.832;2022-09-12T14:53:48;1.65;;;0.70;;
51848;SDS011;38952;51.090;-1.832;2022-09-12T14:56:14;0.90;;;0.40;;
51848;SDS011;38952;51.090;-1.832;2022-09-12T14:58:40;1.90;;;0.50;;
51848;SDS011;38952;51.090;-1.832;2022-09-12T15:01:23;1.17;;;0.40;;
51848;SDS011;38952;51.090;-1.832;2022-09-12T15:03:51;0.70;;;0.40;;
51848;SDS011;38952;51.090;-1.832;2022-09-12T15:06:33;1.42;;;0.57;;
51848;SDS011;38952;51.090;-1.832;2022-09-12T15:09:15;3.22;;;0.70;;
51848;SDS011;38952;51.090;-1.832;2022-09-12T15:11:45;2.13;;;1.05;;
51848;SDS011;38952;51.090;-1.832;2022-09-12T15:14:13;1.65;;;0.88;;
51848;SDS011;38952;51.090;-1.832;2022-09-12T15:16:39;1.45;;;0.80;;
51848;SDS011;38952;51.090;-1.832;2022-09-12T15:19:05;1.38;;;0.47;;
51848;SDS011;38952;51.090;-1.832;2022-09-12T15:21:30;1.25;;;0.35;;
51848;SDS011;38952;51.090;-1.832;2022-09-12T15:23:59;2.83;;;0.63;;
51848;SDS011;38952;51.090;-1.832;2022-09-12T15:26:25;1.05;;;0.40;;
51848;SDS011;38952;51.090;-1.832;2022-09-12T15:28:54;0.57;;;0.40;;
51848;SDS011;38952;51.090;-1.832;2022-09-12T15:33:49;1.92;;;0.50;;
51848;SDS011;38952;51.090;-1.832;2022-09-12T15:36:16;1.65;;;0.30;;
51848;SDS011;38952;51.090;-1.832;2022-09-12T15:38:44;0.88;;;0.40;;
51848;SDS011;38952;51.090;-1.832;2022-09-12T15:41:12;1.00;;;0.50;;
51848;SDS011;38952;51.090;-1.832;2022-09-12T15:43:41;3.85;;;0.50;;
51848;SDS011;38952;51.090;-1.832;2022-09-12T15:46:08;0.80;;;0.45;;
51848;SDS011;38952;51.090;-1.832;2022-09-12T15:48:35;0.90;;;0.47;;
51848;SDS011;38952;51.090;-1.832;2022-09-12T15:51:01;0.32;;;0.30;;
51848;SDS011;38952;51.090;-1.832;2022-09-12T15:53:28;0.40;;;0.30;;
51848;SDS011;38952;51.090;-1.832;2022-09-12T15:55:55;1.00;;;0.40;;
51848;SDS011;38952;51.090;-1.832;2022-09-12T15:58:20;0.68;;;0.30;;
51848;SDS011;38952;51.090;-1.832;2022-09-12T16:00:46;1.08;;;0.50;;
51848;SDS011;38952;51.090;-1.832;2022-09-12T16:03:24;2.13;;;0.82;;
51848;SDS011;38952;51.090;-1.832;2022-09-12T16:05:58;0.95;;;0.40;;
51848;SDS011;38952;51.090;-1.832;2022-09-12T16:08:26;0.93;;;0.60;;
51848;SDS011;38952;51.090;-1.832;2022-09-12T16:10:53;1.13;;;0.65;;
51848;SDS011;38952;51.090;-1.832;2022-09-12T16:13:24;0.65;;;0.40;;
51848;SDS011;38952;51.090;-1.832;2022-09-12T16:15:50;0.93;;;0.40;;
51848;SDS011;38952;51.090;-1.832;2022-09-12T16:18:16;1.55;;;0.80;;
51848;SDS011;38952;51.090;-1.832;2022-09-12T16:20:43;1.23;;;0.50;;
51848;SDS011;38952;51.090;-1.832;2022-09-12T16:23:10;1.85;;;0.38;;
51848;SDS011;38952;51.090;-1.832;2022-09-12T16:25:36;1.10;;;0.35;;
51848;SDS011;38952;51.090;-1.832;2022-09-12T16:28:02;1.30;;;0.70;;
51848;SDS011;38952;51.090;-1.832;2022-09-12T16:30:30;1.08;;;0.63;;
51848;SDS011;38952;51.090;-1.832;2022-09-12T16:32:56;0.63;;;0.35;;
51848;SDS011;38952;51.090;-1.832;2022-09-12T16:35:22;0.30;;;0.20;;
51848;SDS011;38952;51.090;-1.832;2022-09-12T16:37:51;0.85;;;0.43;;
51848;SDS011;38952;51.090;-1.832;2022-09-12T16:40:17;0.82;;;0.30;;
51848;SDS011;38952;51.090;-1.832;2022-09-12T16:42:46;0.63;;;0.50;;
51848;SDS011;38952;51.090;-1.832;2022-09-12T16:45:11;1.33;;;0.60;;
51848;SDS011;38952;51.090;-1.832;2022-09-12T16:47:37;1.75;;;0.70;;
51848;SDS011;38952;51.090;-1.832;2022-09-12T16:50:03;0.40;;;0.40;;
51848;SDS011;38952;51.090;-1.832;2022-09-12T16:52:34;0.30;;;0.28;;
51848;SDS011;38952;51.090;-1.832;2022-09-12T16:54:59;1.23;;;0.28;;
51848;SDS011;38952;51.090;-1.832;2022-09-12T16:57:25;0.28;;;0.28;;
51848;SDS011;38952;51.090;-1.832;2022-09-12T16:59:51;0.77;;;0.30;;
51848;SDS011;38952;51.090;-1.832;2022-09-12T17:02:16;1.15;;;0.40;;
51848;SDS011;38952;51.090;-1.832;2022-09-12T17:04:42;0.40;;;0.30;;
51848;SDS011;38952;51.090;-1.832;2022-09-12T17:07:07;0.82;;;0.22;;
51848;SDS011;38952;51.090;-1.832;2022-09-12T17:09:33;2.72;;;0.30;;
51848;SDS011;38952;51.090;-1.832;2022-09-12T17:11:59;0.93;;;0.40;;
51848;SDS011;38952;51.090;-1.832;2022-09-12T17:14:24;0.52;;;0.20;;
51848;SDS011;38952;51.090;-1.832;2022-09-12T17:16:50;0.50;;;0.28;;
51848;SDS011;38952;51.090;-1.832;2022-09-12T17:19:17;0.70;;;0.30;;
51848;SDS011;38952;51.090;-1.832;2022-09-12T17:21:46;5.03;;;0.70;;
51848;SDS011;38952;51.090;-1.832;2022-09-12T17:24:14;1.08;;;0.60;;
51848;SDS011;38952;51.090;-1.832;2022-09-12T17:26:40;1.60;;;0.70;;
51848;SDS011;38952;51.090;-1.832;2022-09-12T17:29:06;3.88;;;0.63;;
51848;SDS011;38952;51.090;-1.832;2022-09-12T17:32:08;1.98;;;1.00;;
51848;SDS011;38952;51.090;-1.832;2022-09-12T17:34:44;2.80;;;0.73;;
51848;SDS011;38952;51.090;-1.832;2022-09-12T17:37:10;1.35;;;0.80;;
51848;SDS011;38952;51.090;-1.832;2022-09-12T17:39:35;1.42;;;0.90;;
51848;SDS011;38952;51.090;-1.832;2022-09-12T17:42:01;1.80;;;0.70;;
51848;SDS011;38952;51.090;-1.832;2022-09-12T17:44:26;1.35;;;0.60;;
51848;SDS011;38952;51.090;-1.832;2022-09-12T17:46:53;3.00;;;1.20;;
51848;SDS011;38952;51.090;-1.832;2022-09-12T17:49:19;5.00;;;2.25;;